Time;durP1;ratioP1;P1;durP2;ratioP2;P2;SDS_P1;SDS_P2;PMS_P1;PMS_P2;Temp;Humidity;BMP_temperature;BMP_pressure;BME280_temperature;BME280_humidity;BME280_pressure;Samples;Min_cycle;Max_cycle;Signal;HPM_P1;HPM_P2
2022/05/17 00:01:19;;;;;;;;;;;14.30;1.00;;;;;;5063694;28;19923;-75
2022/05/17 00:03:55;;;;;;;;;;;14.30;1.00;;;;;;5054377;28;19913;-76
2022/05/17 00:06:20;;;;;;;;;;;14.20;1.00;;;;;;5053992;28;19913;-75
2022/05/17 00:08:46;;;;;;;;;;;14.20;1.00;;;;;;5052301;28;20418;-75
2022/05/17 00:11:13;;;;;;;;;;;14.20;1.00;;;;;;5054361;28;19936;-75
2022/05/17 00:13:39;;;;;;;;;;;14.10;1.00;;;;;;5061209;28;19965;-75
2022/05/17 00:16:06;;;;;;;;;;;14.10;1.00;;;;;;5092890;28;20007;-75
2022/05/17 00:18:42;;;;;;;;;;;14.10;1.00;;;;;;5066406;28;19917;-75
2022/05/17 00:21:08;;;;;;;;;;;14.10;1.00;;;;;;5052021;28;20252;-75
2022/05/17 00:23:36;;;;;;;;;;;14.10;1.00;;;;;;5053869;28;19913;-75
2022/05/17 00:26:07;;;;;;;;;;;14.00;1.00;;;;;;5056215;28;19916;-75
2022/05/17 00:28:33;;;;;;;;;;;14.00;1.00;;;;;;5058274;28;20310;-75
2022/05/17 00:31:07;;;;;;;;;;;14.00;1.00;;;;;;5067036;28;19956;-76
2022/05/17 00:33:37;;;;;;;;;;;14.00;1.00;;;;;;5064012;28;20046;-75
2022/05/17 00:36:06;;;;;;;;;;;13.90;1.00;;;;;;5066408;28;19916;-75
2022/05/17 00:38:54;;;;;;;;;;;13.90;1.00;;;;;;5056132;28;19923;-75
2022/05/17 00:41:31;;;;;;;;;;;13.80;1.00;;;;;;5052500;28;19952;-79
2022/05/17 00:50:09;;;;;;;;;;;13.70;1.00;;;;;;5065797;28;19922;-79
2022/05/17 00:52:44;;;;;;;;;;;13.70;1.00;;;;;;5070157;28;19919;-79
2022/05/17 00:55:21;;;;;;;;;;;13.70;1.00;;;;;;5058646;28;19909;-78
2022/05/17 00:57:55;;;;;;;;;;;13.60;1.00;;;;;;5066903;28;20029;-79
2022/05/17 01:00:21;;;;;;;;;;;13.60;1.00;;;;;;5056155;28;20388;-79
2022/05/17 01:03:05;;;;;;;;;;;13.50;1.00;;;;;;5056604;28;19974;-79
2022/05/17 01:05:51;;;;;;;;;;;13.50;1.00;;;;;;5061928;28;20635;-79
2022/05/17 01:08:20;;;;;;;;;;;13.40;1.00;;;;;;5062985;28;20403;-79
2022/05/17 01:10:54;;;;;;;;;;;13.40;1.00;;;;;;5065636;28;19966;-79
2022/05/17 01:16:19;;;;;;;;;;;13.30;1.00;;;;;;5056756;28;19915;-79
2022/05/17 01:19:02;;;;;;;;;;;13.30;1.00;;;;;;5043881;28;20268;-79
2022/05/17 01:21:32;;;;;;;;;;;13.30;1.00;;;;;;5058615;28;21726;-79
2022/05/17 01:24:30;;;;;;;;;;;13.20;1.00;;;;;;5068817;28;19908;-79
2022/05/17 01:27:00;;;;;;;;;;;13.20;1.00;;;;;;5044455;28;20425;-75
2022/05/17 01:29:38;;;;;;;;;;;13.10;1.00;;;;;;5060343;28;19927;-76
2022/05/17 01:32:04;;;;;;;;;;;13.10;1.00;;;;;;5063707;28;19909;-75
2022/05/17 01:34:29;;;;;;;;;;;13.10;1.00;;;;;;5069733;28;19909;-75
2022/05/17 01:37:13;;;;;;;;;;;13.10;1.00;;;;;;5069130;28;19912;-75
2022/05/17 01:39:44;;;;;;;;;;;13.10;1.00;;;;;;5057099;28;19913;-75
2022/05/17 01:42:11;;;;;;;;;;;13.00;1.00;;;;;;5057055;28;19909;-76
2022/05/17 01:44:37;;;;;;;;;;;13.00;1.00;;;;;;5066223;28;20536;-75
2022/05/17 01:47:07;;;;;;;;;;;13.00;1.00;;;;;;5071695;28;19909;-75
2022/05/17 01:49:32;;;;;;;;;;;13.00;1.00;;;;;;5072851;28;20370;-75
2022/05/17 01:52:12;;;;;;;;;;;13.00;1.00;;;;;;5061535;28;19908;-75
2022/05/17 01:54:54;;;;;;;;;;;12.90;1.00;;;;;;5055985;28;20248;-75
2022/05/17 01:57:24;;;;;;;;;;;12.90;1.00;;;;;;5069406;28;20008;-79
2022/05/17 02:00:08;;;;;;;;;;;12.90;1.00;;;;;;5067264;28;20275;-79
2022/05/17 02:02:50;;;;;;;;;;;12.90;1.00;;;;;;5052730;28;19913;-80
2022/05/17 02:05:36;;;;;;;;;;;12.90;1.00;;;;;;5057940;28;20015;-79
2022/05/17 02:08:12;;;;;;;;;;;12.80;1.00;;;;;;5055659;28;20410;-79
2022/05/17 02:10:42;;;;;;;;;;;12.80;1.00;;;;;;5055466;28;19971;-79
2022/05/17 02:13:30;;;;;;;;;;;12.70;1.00;;;;;;5055663;28;19913;-79
2022/05/17 02:16:04;;;;;;;;;;;12.70;1.00;;;;;;5055338;28;20319;-79
2022/05/17 02:18:31;;;;;;;;;;;12.70;1.00;;;;;;5073637;28;19915;-79
2022/05/17 02:21:01;;;;;;;;;;;12.70;1.00;;;;;;5055207;28;19912;-79
2022/05/17 02:23:37;;;;;;;;;;;12.70;1.00;;;;;;5048835;28;20382;-79
2022/05/17 02:26:07;;;;;;;;;;;12.60;1.00;;;;;;5060324;28;19913;-79
2022/05/17 02:28:43;;;;;;;;;;;12.60;1.00;;;;;;5054968;28;19975;-79
2022/05/17 02:34:12;;;;;;;;;;;12.60;1.00;;;;;;5054748;28;20318;-79
2022/05/17 02:37:00;;;;;;;;;;;12.50;1.00;;;;;;5054778;28;20000;-79
2022/05/17 02:42:29;;;;;;;;;;;12.50;1.00;;;;;;5057800;28;19970;-75
2022/05/17 02:44:54;;;;;;;;;;;12.50;1.00;;;;;;5053896;28;19908;-75
2022/05/17 02:47:20;;;;;;;;;;;12.40;1.00;;;;;;5058225;28;19908;-75
2022/05/17 02:49:46;;;;;;;;;;;12.40;1.00;;;;;;5064816;28;19913;-75
2022/05/17 02:52:12;;;;;;;;;;;12.40;1.00;;;;;;5054679;28;19956;-75
2022/05/17 02:54:42;;;;;;;;;;;12.30;1.00;;;;;;5054880;28;19908;-75
2022/05/17 02:57:18;;;;;;;;;;;12.30;1.00;;;;;;5058126;28;20364;-79
2022/05/17 03:00:12;;;;;;;;;;;12.30;1.00;;;;;;5054403;28;19913;-79
2022/05/17 03:05:41;;;;;;;;;;;12.30;1.00;;;;;;5062431;28;19958;-79
2022/05/17 03:08:18;;;;;;;;;;;12.30;1.00;;;;;;5062591;28;20268;-79
2022/05/17 03:10:49;;;;;;;;;;;12.30;1.00;;;;;;5047438;28;19920;-79
2022/05/17 03:13:15;;;;;;;;;;;12.20;1.00;;;;;;5054210;28;20367;-75
2022/05/17 03:15:42;;;;;;;;;;;12.10;1.00;;;;;;5064790;28;20343;-75
2022/05/17 03:18:08;;;;;;;;;;;12.10;1.00;;;;;;5057180;28;19909;-75
2022/05/17 03:20:34;;;;;;;;;;;12.10;1.00;;;;;;5054156;28;20011;-75
2022/05/17 03:23:00;;;;;;;;;;;12.10;1.00;;;;;;5103808;28;19955;-75
2022/05/17 03:25:30;;;;;;;;;;;12.10;1.00;;;;;;5059548;28;19913;-75
2022/05/17 03:28:13;;;;;;;;;;;12.10;1.00;;;;;;5054484;28;20008;-75
2022/05/17 03:30:43;;;;;;;;;;;12.00;1.00;;;;;;5054415;28;19927;-75
2022/05/17 03:33:12;;;;;;;;;;;11.90;1.00;;;;;;5036851;28;19913;-75
2022/05/17 03:35:38;;;;;;;;;;;12.00;1.00;;;;;;5054114;28;20007;-75
2022/05/17 03:38:04;;;;;;;;;;;12.00;1.00;;;;;;5054036;28;19944;-75
2022/05/17 03:40:31;;;;;;;;;;;12.00;1.00;;;;;;5061948;28;19916;-75
2022/05/17 03:43:06;;;;;;;;;;;11.90;1.00;;;;;;5054251;28;19916;-75
2022/05/17 03:45:32;;;;;;;;;;;11.90;1.00;;;;;;5054396;28;20101;-75
2022/05/17 03:48:00;;;;;;;;;;;11.90;1.00;;;;;;5062898;28;19909;-74
2022/05/17 03:50:26;;;;;;;;;;;11.90;1.00;;;;;;5068305;28;19920;-75
2022/05/17 03:52:52;;;;;;;;;;;11.90;1.00;;;;;;5054264;28;19917;-75
2022/05/17 03:55:31;;;;;;;;;;;11.90;1.00;;;;;;5054585;28;19908;-75
2022/05/17 03:58:01;;;;;;;;;;;11.90;1.00;;;;;;5053916;28;19909;-75
2022/05/17 04:00:26;;;;;;;;;;;11.90;1.00;;;;;;5054205;28;19919;-75
2022/05/17 04:02:52;;;;;;;;;;;11.90;1.00;;;;;;5053751;28;19909;-75
2022/05/17 04:05:19;;;;;;;;;;;11.90;1.00;;;;;;5072110;28;19913;-75
2022/05/17 04:07:45;;;;;;;;;;;11.90;1.00;;;;;;5073944;28;19909;-75
2022/05/17 04:10:30;;;;;;;;;;;12.00;1.00;;;;;;5060455;28;20384;-75
2022/05/17 04:12:56;;;;;;;;;;;12.00;1.00;;;;;;5053823;28;19913;-75
2022/05/17 04:15:24;;;;;;;;;;;12.00;1.00;;;;;;5058117;28;19954;-75
2022/05/17 04:18:07;;;;;;;;;;;12.10;1.00;;;;;;5071742;28;20008;-75
2022/05/17 04:20:33;;;;;;;;;;;12.00;1.00;;;;;;5077937;28;20144;-76
2022/05/17 04:23:12;;;;;;;;;;;12.10;1.00;;;;;;5060267;28;19917;-75
2022/05/17 04:25:38;;;;;;;;;;;12.10;1.00;;;;;;5067085;28;19921;-75
2022/05/17 04:28:07;;;;;;;;;;;12.20;1.00;;;;;;5057350;28;19912;-79
2022/05/17 04:30:43;;;;;;;;;;;12.20;1.00;;;;;;5089201;28;19951;-80
2022/05/17 04:33:09;;;;;;;;;;;12.20;1.00;;;;;;5070576;28;19909;-75
2022/05/17 04:35:36;;;;;;;;;;;12.30;1.00;;;;;;5057972;28;19909;-75
2022/05/17 04:38:19;;;;;;;;;;;12.30;1.00;;;;;;5051494;28;19920;-75
2022/05/17 04:40:55;;;;;;;;;;;12.30;1.00;;;;;;5043848;28;20372;-80
2022/05/17 04:43:38;;;;;;;;;;;12.40;1.00;;;;;;5066727;28;19908;-80
2022/05/17 04:46:12;;;;;;;;;;;12.40;1.00;;;;;;5056076;28;19908;-80
2022/05/17 04:48:42;;;;;;;;;;;12.50;1.00;;;;;;5037173;28;19913;-82
2022/05/17 04:51:09;;;;;;;;;;;12.50;1.00;;;;;;5044041;28;19913;-81
2022/05/17 04:54:00;;;;;;;;;;;12.60;1.00;;;;;;5055639;28;20367;-81
2022/05/17 04:56:31;;;;;;;;;;;12.60;1.00;;;;;;5069081;28;19909;-81
2022/05/17 04:59:07;;;;;;;;;;;12.70;1.00;;;;;;5098469;28;20284;-77
2022/05/17 05:01:33;;;;;;;;;;;12.70;1.00;;;;;;5057470;28;19964;-76
2022/05/17 05:04:09;;;;;;;;;;;12.80;1.00;;;;;;5061508;28;19987;-77
2022/05/17 05:06:35;;;;;;;;;;;12.90;1.00;;;;;;5067345;28;19909;-73
2022/05/17 05:09:01;;;;;;;;;;;12.90;1.00;;;;;;5076778;28;19919;-73
2022/05/17 05:11:37;;;;;;;;;;;13.00;1.00;;;;;;5056930;28;19913;-73
2022/05/17 05:14:02;;;;;;;;;;;13.10;1.00;;;;;;5056864;28;19940;-73
2022/05/17 05:16:28;;;;;;;;;;;13.20;1.00;;;;;;5056234;28;19959;-73
2022/05/17 05:18:54;;;;;;;;;;;13.30;1.00;;;;;;5066534;28;19908;-72
2022/05/17 05:21:19;;;;;;;;;;;13.40;1.00;;;;;;5057759;28;19917;-73
2022/05/17 05:23:45;;;;;;;;;;;13.40;1.00;;;;;;5056412;28;19913;-73
2022/05/17 05:26:12;;;;;;;;;;;13.60;1.00;;;;;;5038752;28;19913;-73
2022/05/17 05:28:55;;;;;;;;;;;13.70;1.00;;;;;;5046633;28;20351;-72
2022/05/17 05:31:21;;;;;;;;;;;13.80;1.00;;;;;;5037868;28;19917;-73
2022/05/17 05:33:46;;;;;;;;;;;13.90;1.00;;;;;;5034848;28;19909;-73
2022/05/17 05:36:12;;;;;;;;;;;14.00;1.00;;;;;;5041107;28;19913;-73
2022/05/17 05:38:43;;;;;;;;;;;14.20;1.00;;;;;;5048378;28;20271;-73
2022/05/17 05:41:13;;;;;;;;;;;14.30;1.00;;;;;;5046068;28;19913;-73
2022/05/17 05:43:43;;;;;;;;;;;14.40;1.00;;;;;;5042775;28;19920;-73
2022/05/17 05:46:09;;;;;;;;;;;14.60;1.00;;;;;;5030355;28;19971;-73
2022/05/17 05:48:36;;;;;;;;;;;14.70;1.00;;;;;;5037938;28;19971;-71
2022/05/17 05:51:07;;;;;;;;;;;14.80;1.00;;;;;;5055881;28;19954;-74
2022/05/17 05:53:43;;;;;;;;;;;14.90;1.00;;;;;;5037523;28;19913;-73
2022/05/17 05:56:13;;;;;;;;;;;15.10;1.00;;;;;;5043897;28;19996;-74
2022/05/17 05:58:39;;;;;;;;;;;15.20;1.00;;;;;;5049715;28;19912;-73
2022/05/17 06:01:05;;;;;;;;;;;15.30;1.00;;;;;;5055698;28;19936;-73
2022/05/17 06:03:32;;;;;;;;;;;15.50;1.00;;;;;;5038763;28;19913;-73
2022/05/17 06:06:08;;;;;;;;;;;15.60;1.00;;;;;;5045676;28;19909;-73
2022/05/17 06:08:34;;;;;;;;;;;15.80;1.00;;;;;;5039765;28;20012;-73
2022/05/17 06:11:01;;;;;;;;;;;15.90;1.00;;;;;;5039832;28;19916;-73
2022/05/17 06:13:27;;;;;;;;;;;16.10;1.00;;;;;;5044993;28;19913;-71
2022/05/17 06:18:56;;;;;;;;;;;16.30;1.00;;;;;;5021332;28;20419;-82
2022/05/17 06:21:24;;;;;;;;;;;16.50;1.00;;;;;;5019232;28;19913;-81
2022/05/17 06:24:07;;;;;;;;;;;16.60;1.00;;;;;;5035226;28;19917;-80
2022/05/17 06:26:32;;;;;;;;;;;16.70;1.00;;;;;;5035114;28;19909;-83
2022/05/17 06:29:13;;;;;;;;;;;16.80;1.00;;;;;;5035734;28;19921;-80
2022/05/17 06:31:38;;;;;;;;;;;16.90;1.00;;;;;;5030266;28;20000;-69
2022/05/17 06:34:04;;;;;;;;;;;17.10;1.00;;;;;;5031620;28;20437;-69
2022/05/17 06:36:30;;;;;;;;;;;17.20;1.00;;;;;;5033823;28;20399;-69
2022/05/17 06:38:56;;;;;;;;;;;17.30;1.00;;;;;;5047927;28;19913;-69
2022/05/17 06:41:22;;;;;;;;;;;17.50;1.00;;;;;;5034371;28;20349;-69
2022/05/17 06:43:47;;;;;;;;;;;17.70;1.00;;;;;;5034470;28;19913;-71
2022/05/17 06:46:13;;;;;;;;;;;17.80;1.00;;;;;;5035680;28;20008;-71
2022/05/17 06:48:39;;;;;;;;;;;18.00;1.00;;;;;;5033626;28;19924;-71
2022/05/17 06:51:06;;;;;;;;;;;18.10;1.00;;;;;;5034292;28;19909;-71
2022/05/17 06:53:32;;;;;;;;;;;18.20;1.00;;;;;;5026859;28;19913;-71
2022/05/17 06:55:58;;;;;;;;;;;18.40;1.00;;;;;;5034963;28;19916;-71
2022/05/17 06:58:24;;;;;;;;;;;18.60;1.00;;;;;;5034457;28;20356;-70
2022/05/17 07:00:52;;;;;;;;;;;18.70;1.00;;;;;;5034230;28;19913;-72
2022/05/17 07:03:18;;;;;;;;;;;18.90;1.00;;;;;;5038380;28;19956;-72
2022/05/17 07:05:44;;;;;;;;;;;19.10;1.00;;;;;;5033156;28;19960;-69
2022/05/17 07:08:13;;;;;;;;;;;19.30;1.00;;;;;;5032758;28;20321;-72
2022/05/17 07:13:22;;;;;;;;;;;19.50;1.00;;;;;;5033496;28;19967;-72
2022/05/17 07:15:49;;;;;;;;;;;19.70;1.00;;;;;;5038971;28;19916;-72
2022/05/17 07:18:18;;;;;;;;;;;19.90;1.00;;;;;;5034203;28;19917;-72
2022/05/17 07:20:44;;;;;;;;;;;20.00;1.00;;;;;;5033945;28;19956;-72
2022/05/17 07:23:10;;;;;;;;;;;20.10;1.00;;;;;;5048340;28;20364;-72
2022/05/17 07:25:39;;;;;;;;;;;20.20;1.00;;;;;;5054071;28;20292;-72
2022/05/17 07:28:04;;;;;;;;;;;20.30;1.00;;;;;;5061539;28;19912;-72
2022/05/17 07:30:30;;;;;;;;;;;20.40;1.00;;;;;;5049129;28;19917;-73
2022/05/17 07:33:00;;;;;;;;;;;20.60;1.00;;;;;;5052984;28;19939;-73
2022/05/17 07:35:26;;;;;;;;;;;20.80;1.00;;;;;;5052877;28;19912;-73
2022/05/17 07:37:52;;;;;;;;;;;21.10;1.00;;;;;;5056405;28;19915;-73
2022/05/17 07:40:19;;;;;;;;;;;21.30;1.00;;;;;;5057650;28;20315;-73
2022/05/17 07:42:49;;;;;;;;;;;21.60;1.00;;;;;;5063469;28;19959;-73
2022/05/17 07:45:15;;;;;;;;;;;21.90;1.00;;;;;;5054346;28;19920;-72
2022/05/17 07:47:43;;;;;;;;;;;22.20;1.00;;;;;;5060101;28;19912;-72
2022/05/17 07:50:09;;;;;;;;;;;22.50;99.90;;;;;;5069407;28;19917;-72
2022/05/17 07:52:34;;;;;;;;;;;22.60;99.90;;;;;;5057808;28;19909;-72
2022/05/17 07:55:00;;;;;;;;;;;22.80;99.90;;;;;;5060910;28;19919;-72
2022/05/17 07:57:27;;;;;;;;;;;22.80;99.90;;;;;;5071603;28;19912;-72
2022/05/17 07:59:52;;;;;;;;;;;22.70;99.90;;;;;;5057953;28;19913;-72
2022/05/17 08:02:18;;;;;;;;;;;22.90;99.90;;;;;;5058394;28;19913;-72
2022/05/17 08:04:44;;;;;;;;;;;23.00;99.90;;;;;;5059584;28;19913;-72
2022/05/17 08:07:10;;;;;;;;;;;22.90;99.90;;;;;;5058797;28;19966;-72
2022/05/17 08:09:35;;;;;;;;;;;22.90;99.90;;;;;;5057435;28;19917;-72
2022/05/17 08:12:03;;;;;;;;;;;22.90;99.90;;;;;;5067820;28;19913;-72
2022/05/17 08:14:31;;;;;;;;;;;22.80;99.90;;;;;;5057998;28;20280;-78
2022/05/17 08:17:01;;;;;;;;;;;22.80;99.90;;;;;;5057232;28;19913;-78
2022/05/17 08:19:31;;;;;;;;;;;22.90;99.90;;;;;;5057572;28;19962;-78
2022/05/17 08:21:56;;;;;;;;;;;22.90;99.90;;;;;;5056559;28;19913;-77
2022/05/17 08:24:25;;;;;;;;;;;22.90;99.90;;;;;;5057611;28;19909;-78
2022/05/17 08:29:39;;;;;;;;;;;23.20;99.90;;;;;;5064987;28;19928;-83
2022/05/17 08:35:24;;;;;;;;;;;23.40;99.90;;;;;;5054151;28;19923;-82
2022/05/17 08:38:01;;;;;;;;;;;23.60;99.90;;;;;;5089271;28;20011;-82
2022/05/17 08:43:31;;;;;;;;;;;23.70;99.90;;;;;;5058564;28;19938;-83
2022/05/17 08:46:07;;;;;;;;;;;23.80;99.90;;;;;;5057524;28;19909;-77
2022/05/17 08:48:54;;;;;;;;;;;23.90;99.90;;;;;;5062609;28;19964;-76
2022/05/17 08:51:34;;;;;;;;;;;23.60;99.90;;;;;;5049124;28;20071;-76
2022/05/17 08:54:03;;;;;;;;;;;23.60;99.90;;;;;;5056308;28;19916;-77
2022/05/17 08:56:31;;;;;;;;;;;23.80;99.90;;;;;;5061812;28;20291;-77
2022/05/17 08:59:01;;;;;;;;;;;23.80;99.90;;;;;;5070813;28;19979;-76
2022/05/17 09:01:37;;;;;;;;;;;23.70;99.90;;;;;;5056935;28;19912;-83
2022/05/17 09:04:30;;;;;;;;;;;23.70;99.90;;;;;;5055649;28;19958;-83
2022/05/17 09:07:05;;;;;;;;;;;23.70;99.90;;;;;;5058318;28;19912;-83
2022/05/17 09:09:36;;;;;;;;;;;24.00;99.90;;;;;;5068647;28;20011;-84
2022/05/17 09:12:33;;;;;;;;;;;24.20;99.90;;;;;;5056383;28;19974;-81
2022/05/17 09:15:00;;;;;;;;;;;24.20;99.90;;;;;;5047507;28;20011;-80
2022/05/17 09:17:28;;;;;;;;;;;24.00;99.90;;;;;;4998433;28;19921;-72
2022/05/17 09:19:54;;;;;;;;;;;24.20;99.90;;;;;;5027745;28;19953;-72
2022/05/17 09:22:20;;;;;;;;;;;24.30;99.90;;;;;;5021757;28;19924;-72
2022/05/17 09:25:09;;;;;;;;;;;24.50;99.90;;;;;;5025177;28;19932;-72
2022/05/17 09:27:38;;;;;;;;;;;24.50;99.90;;;;;;4972308;28;20258;-71
2022/05/17 09:30:07;;;;;;;;;;;24.50;99.90;;;;;;4968568;28;19974;-71
2022/05/17 09:32:35;;;;;;;;;;;24.60;99.90;;;;;;4963529;28;19922;-72
2022/05/17 09:35:21;;;;;;;;;;;24.80;99.90;;;;;;4967203;28;19922;-72
2022/05/17 09:37:56;;;;;;;;;;;24.40;99.90;;;;;;4976391;28;19913;-72
2022/05/17 09:40:24;;;;;;;;;;;24.30;99.90;;;;;;4989170;28;20019;-75
2022/05/17 09:42:59;;;;;;;;;;;24.10;99.90;;;;;;4979839;28;19913;-75
2022/05/17 09:45:43;;;;;;;;;;;24.10;99.90;;;;;;4987924;28;19924;-84
2022/05/17 09:54:40;;;;;;;;;;;24.30;99.90;;;;;;5023067;28;19939;-84
2022/05/17 09:57:14;;;;;;;;;;;24.50;99.90;;;;;;5045665;28;19916;-84
2022/05/17 10:05:49;;;;;;;;;;;25.00;99.90;;;;;;5055217;28;19919;-85
2022/05/17 10:08:37;;;;;;;;;;;25.10;99.90;;;;;;5056609;28;20008;-84
2022/05/17 10:11:37;;;;;;;;;;;25.10;99.90;;;;;;5058460;28;19974;-84
2022/05/17 10:14:37;;;;;;;;;;;25.30;99.90;;;;;;5042504;28;19913;-85
2022/05/17 10:17:07;;;;;;;;;;;25.40;99.90;;;;;;5043920;28;20007;-80
2022/05/17 10:19:48;;;;;;;;;;;25.60;99.90;;;;;;5065853;28;19935;-80
2022/05/17 10:22:27;;;;;;;;;;;25.70;99.90;;;;;;5063073;28;20337;-79
2022/05/17 10:25:25;;;;;;;;;;;26.00;99.90;;;;;;5054910;28;19917;-79
2022/05/17 10:28:15;;;;;;;;;;;26.20;99.90;;;;;;5086958;28;20307;-79
2022/05/17 10:31:11;;;;;;;;;;;26.40;99.90;;;;;;5068146;28;19920;-85
2022/05/17 10:34:15;;;;;;;;;;;26.50;99.90;;;;;;5053154;28;19912;-86
2022/05/17 10:36:44;;;;;;;;;;;26.80;99.90;;;;;;5012745;28;20007;-85
2022/05/17 10:39:38;;;;;;;;;;;26.80;99.90;;;;;;5002465;28;19913;-85
2022/05/17 10:42:27;;;;;;;;;;;26.90;99.90;;;;;;5011711;28;19927;-85
2022/05/17 10:45:10;;;;;;;;;;;27.00;99.90;;;;;;5002327;28;19914;-85
2022/05/17 10:51:01;;;;;;;;;;;27.20;99.90;;;;;;5018588;28;20012;-85
2022/05/17 10:53:36;;;;;;;;;;;27.40;99.90;;;;;;5006175;28;20008;-86
2022/05/17 10:56:19;;;;;;;;;;;27.70;99.90;;;;;;4993819;28;20029;-84
2022/05/17 10:59:07;;;;;;;;;;;27.80;99.90;;;;;;5002566;28;19941;-85
2022/05/17 11:01:38;;;;;;;;;;;27.90;99.90;;;;;;5001178;28;19941;-80
2022/05/17 11:04:09;;;;;;;;;;;28.00;99.90;;;;;;5018803;28;19922;-80
2022/05/17 11:06:55;;;;;;;;;;;28.00;99.90;;;;;;5011243;28;19956;-79
2022/05/17 11:09:29;;;;;;;;;;;28.10;99.90;;;;;;5000789;28;19927;-81
2022/05/17 11:12:04;;;;;;;;;;;28.30;99.90;;;;;;5059940;28;19920;-81
2022/05/17 11:14:37;;;;;;;;;;;28.20;99.90;;;;;;5047568;28;20003;-81
2022/05/17 11:17:12;;;;;;;;;;;28.30;99.90;;;;;;5054530;28;19913;-80
2022/05/17 11:19:46;;;;;;;;;;;28.50;99.90;;;;;;5055923;28;20481;-82
2022/05/17 11:22:22;;;;;;;;;;;28.60;99.90;;;;;;5063622;28;19909;-78
2022/05/17 11:25:24;;;;;;;;;;;28.80;99.90;;;;;;5047129;28;19921;-77
2022/05/17 11:28:29;;;;;;;;;;;29.00;99.90;;;;;;5063159;28;19924;-82
2022/05/17 11:31:12;;;;;;;;;;;29.00;99.90;;;;;;4995710;28;20416;-83
2022/05/17 11:34:15;;;;;;;;;;;29.20;99.90;;;;;;4985627;28;19976;-82
2022/05/17 11:36:54;;;;;;;;;;;29.20;99.90;;;;;;4924987;29;20326;-82
2022/05/17 11:39:31;;;;;;;;;;;29.10;99.90;;;;;;4919721;29;19915;-83
2022/05/17 11:42:12;;;;;;;;;;;29.00;99.90;;;;;;4918518;29;19994;-82
2022/05/17 11:45:07;;;;;;;;;;;29.10;99.90;;;;;;4916727;29;19915;-81
2022/05/17 11:47:57;;;;;;;;;;;29.10;99.90;;;;;;4927902;29;19918;-82
2022/05/17 11:50:31;;;;;;;;;;;29.10;99.90;;;;;;4917259;29;19962;-81
2022/05/17 11:56:19;;;;;;;;;;;29.20;99.90;;;;;;4929978;29;20008;-81
2022/05/17 11:59:12;;;;;;;;;;;29.20;99.90;;;;;;4923815;29;19911;-80
2022/05/17 12:04:42;;;;;;;;;;;30.00;99.90;;;;;;4928208;29;19969;-80
2022/05/17 12:07:31;;;;;;;;;;;30.00;99.90;;;;;;4949758;29;19921;-80
2022/05/17 12:10:09;;;;;;;;;;;29.90;99.90;;;;;;4948863;28;20391;-80
2022/05/17 12:13:01;;;;;;;;;;;29.90;99.90;;;;;;5022024;28;19936;-80
2022/05/17 12:15:27;;;;;;;;;;;29.80;99.90;;;;;;5043212;28;20376;-80
2022/05/17 12:18:13;;;;;;;;;;;29.60;99.90;;;;;;5042360;28;19913;-80
2022/05/17 12:20:54;;;;;;;;;;;29.50;99.90;;;;;;5040102;28;20284;-79
2022/05/17 12:23:31;;;;;;;;;;;29.40;99.90;;;;;;5038900;28;19913;-80
2022/05/17 12:26:08;;;;;;;;;;;29.30;99.90;;;;;;5046611;28;20313;-79
2022/05/17 12:32:04;;;;;;;;;;;29.00;99.90;;;;;;5049484;28;20043;-83
2022/05/17 12:34:49;;;;;;;;;;;28.70;99.90;;;;;;5026472;28;20038;-83
2022/05/17 12:43:37;;;;;;;;;;;28.00;99.90;;;;;;5030762;28;19920;-83
2022/05/17 12:46:21;;;;;;;;;;;27.80;99.90;;;;;;5035328;28;19917;-83
2022/05/17 12:48:49;;;;;;;;;;;27.60;99.90;;;;;;5035466;28;20280;-83
2022/05/17 12:51:31;;;;;;;;;;;27.50;99.90;;;;;;5035159;28;19909;-83
2022/05/17 12:54:03;;;;;;;;;;;27.50;99.90;;;;;;5017458;28;20471;-83
2022/05/17 12:56:33;;;;;;;;;;;27.40;99.90;;;;;;5033323;28;19967;-83
2022/05/17 12:59:01;;;;;;;;;;;27.40;99.90;;;;;;5038775;28;20400;-83
2022/05/17 13:01:35;;;;;;;;;;;27.50;99.90;;;;;;5053645;28;20383;-84
2022/05/17 13:04:12;;;;;;;;;;;27.70;99.90;;;;;;5032582;28;20000;-80
2022/05/17 13:06:40;;;;;;;;;;;27.90;99.90;;;;;;5046542;28;19909;-80
2022/05/17 13:09:06;;;;;;;;;;;28.20;99.90;;;;;;5055607;28;19917;-80
2022/05/17 13:11:32;;;;;;;;;;;28.50;99.90;;;;;;5067690;28;19912;-85
2022/05/17 13:14:12;;;;;;;;;;;28.80;99.90;;;;;;5059787;28;20390;-84
2022/05/17 13:17:13;;;;;;;;;;;29.20;99.90;;;;;;5063183;28;20316;-84
2022/05/17 13:19:40;;;;;;;;;;;29.70;99.90;;;;;;5056263;28;19991;-74
2022/05/17 13:22:06;;;;;;;;;;;30.10;99.90;;;;;;5055828;28;19919;-74
2022/05/17 13:24:35;;;;;;;;;;;30.40;99.90;;;;;;5058106;28;19921;-74
2022/05/17 13:27:12;;;;;;;;;;;30.60;99.90;;;;;;5058344;28;20268;-73
2022/05/17 13:29:40;;;;;;;;;;;30.80;99.90;;;;;;5056201;28;20311;-74
2022/05/17 13:32:10;;;;;;;;;;;30.70;99.90;;;;;;5056429;28;20380;-73
2022/05/17 13:34:37;;;;;;;;;;;30.70;99.90;;;;;;5062135;28;19963;-86
2022/05/17 13:37:15;;;;;;;;;;;31.00;99.90;;;;;;5058967;28;19913;-85
2022/05/17 13:43:01;;;;;;;;;;;30.90;99.90;;;;;;5066013;28;19920;-84
2022/05/17 13:45:30;;;;;;;;;;;30.50;99.90;;;;;;5053092;28;20019;-85
2022/05/17 13:47:56;;;;;;;;;;;30.70;99.90;;;;;;5041816;28;19956;-75
2022/05/17 13:50:25;;;;;;;;;;;30.80;99.90;;;;;;5069028;28;19936;-74
2022/05/17 13:52:54;;;;;;;;;;;31.10;99.90;;;;;;5058009;28;19936;-74
2022/05/17 13:55:28;;;;;;;;;;;31.00;99.90;;;;;;5057470;28;20352;-74
2022/05/17 13:57:59;;;;;;;;;;;31.00;99.90;;;;;;5053046;28;19917;-74
2022/05/17 14:00:29;;;;;;;;;;;31.20;99.90;;;;;;5069160;28;19915;-74
2022/05/17 14:02:57;;;;;;;;;;;31.10;99.90;;;;;;5054507;28;19915;-74
2022/05/17 14:05:23;;;;;;;;;;;31.00;99.90;;;;;;5064118;28;19966;-74
2022/05/17 14:07:53;;;;;;;;;;;30.90;99.90;;;;;;5049666;28;19916;-74
2022/05/17 14:13:07;;;;;;;;;;;30.50;99.90;;;;;;5057828;28;19921;-73
2022/05/17 14:15:34;;;;;;;;;;;30.40;99.90;;;;;;5056738;28;19948;-75
2022/05/17 14:17:59;;;;;;;;;;;30.30;99.90;;;;;;5047560;28;19923;-74
2022/05/17 14:20:25;;;;;;;;;;;30.10;99.90;;;;;;5056022;28;19912;-74
2022/05/17 14:22:53;;;;;;;;;;;30.00;99.90;;;;;;5056660;28;19909;-74
2022/05/17 14:25:19;;;;;;;;;;;29.80;99.90;;;;;;5066516;28;19917;-73
2022/05/17 14:27:45;;;;;;;;;;;29.60;99.90;;;;;;5070203;28;20344;-73
2022/05/17 14:30:11;;;;;;;;;;;29.30;99.90;;;;;;5073099;28;19927;-73
2022/05/17 14:32:37;;;;;;;;;;;29.20;99.90;;;;;;5052537;28;20004;-73
2022/05/17 14:35:02;;;;;;;;;;;29.20;99.90;;;;;;5074317;28;20359;-73
2022/05/17 14:37:28;;;;;;;;;;;29.10;99.90;;;;;;5072207;28;19909;-74
2022/05/17 14:39:53;;;;;;;;;;;28.90;99.90;;;;;;5053785;28;19913;-74
2022/05/17 14:42:19;;;;;;;;;;;28.70;99.90;;;;;;5068923;28;20311;-74
2022/05/17 14:44:45;;;;;;;;;;;28.50;99.90;;;;;;5062571;28;19919;-74
2022/05/17 14:47:12;;;;;;;;;;;28.40;99.90;;;;;;5055098;28;20283;-74
2022/05/17 14:49:39;;;;;;;;;;;28.20;99.90;;;;;;5074082;28;19912;-74
2022/05/17 14:52:05;;;;;;;;;;;28.10;99.90;;;;;;5073574;28;19912;-74
2022/05/17 14:54:31;;;;;;;;;;;28.00;99.90;;;;;;5073818;28;19909;-74
2022/05/17 14:56:57;;;;;;;;;;;27.90;99.90;;;;;;5073425;28;20359;-74
2022/05/17 14:59:22;;;;;;;;;;;27.80;99.90;;;;;;5073630;28;19915;-74
2022/05/17 15:01:49;;;;;;;;;;;27.70;99.90;;;;;;5106211;28;19916;-74
2022/05/17 15:04:15;;;;;;;;;;;27.60;99.90;;;;;;5073700;28;20422;-74
2022/05/17 15:06:49;;;;;;;;;;;27.60;99.90;;;;;;5106154;28;19915;-74
2022/05/17 15:09:15;;;;;;;;;;;27.50;99.90;;;;;;5073327;28;19916;-74
2022/05/17 15:11:41;;;;;;;;;;;27.50;99.90;;;;;;5070097;28;19912;-74
2022/05/17 15:14:07;;;;;;;;;;;27.50;99.90;;;;;;5051795;28;20118;-74
2022/05/17 15:16:33;;;;;;;;;;;27.40;99.90;;;;;;5066259;28;19913;-74
2022/05/17 15:18:58;;;;;;;;;;;27.40;99.90;;;;;;5053545;28;20375;-74
2022/05/17 15:21:24;;;;;;;;;;;27.30;99.90;;;;;;5053299;28;20393;-74
2022/05/17 15:23:50;;;;;;;;;;;27.30;99.90;;;;;;5070674;28;19913;-74
2022/05/17 15:26:16;;;;;;;;;;;27.30;99.90;;;;;;5073393;28;20007;-74
2022/05/17 15:28:42;;;;;;;;;;;27.30;99.90;;;;;;5073509;28;19912;-74
2022/05/17 15:31:09;;;;;;;;;;;27.30;99.90;;;;;;5073266;28;19912;-74
2022/05/17 15:33:35;;;;;;;;;;;27.40;99.90;;;;;;5073356;28;19913;-75
2022/05/17 15:36:00;;;;;;;;;;;27.40;99.90;;;;;;5073023;28;19912;-74
2022/05/17 15:38:30;;;;;;;;;;;27.50;99.90;;;;;;5073009;28;20275;-74
2022/05/17 15:41:00;;;;;;;;;;;27.60;99.90;;;;;;5061523;28;19932;-74
2022/05/17 15:43:26;;;;;;;;;;;27.80;99.90;;;;;;5071838;28;19908;-74
2022/05/17 15:45:53;;;;;;;;;;;28.00;99.90;;;;;;5072928;28;19908;-74
2022/05/17 15:53:47;;;;;;;;;;;29.10;99.90;;;;;;5072830;28;20283;-74
2022/05/17 15:56:13;;;;;;;;;;;29.40;99.90;;;;;;5072742;28;19908;-74
2022/05/17 15:58:40;;;;;;;;;;;29.60;99.90;;;;;;5072894;28;19944;-75
2022/05/17 16:01:10;;;;;;;;;;;29.80;99.90;;;;;;5071549;28;19915;-75
2022/05/17 16:03:43;;;;;;;;;;;30.30;99.90;;;;;;5072868;28;19908;-75
2022/05/17 16:06:08;;;;;;;;;;;30.90;99.90;;;;;;5078215;28;20359;-82
2022/05/17 16:08:34;;;;;;;;;;;32.20;99.90;;;;;;5072814;28;19919;-82